Almont, Colorado
Current Conditions -  °F | °C
As of 2:15 PM on Thursday 20 Nov 2014 (Local Time) from KGUC Reporting Station
Few Clouds Few Clouds  
Wind Chill: 28°   Ceiling: Unl
Heat Index: 28°   Visibility: 10mi
Dew Point: 12°   Wind: 0mph
Humidity: 51%   Direction: NA
Pressure: 30.13"   Gusts: NA
Location:  38.66°N, 106.85°W
Report Text: KGUC 202115Z AUTO 00000KT 10SM FEW090 M02/M11 A3013 RMK AO1
Loading
Personal Weather Stations






























Interactive Weather Map New forecast layout! Learn more

10-Day Weather Forecast

Advertisements
Track Severe Weather on mobile